createdAt,value
2018-03-26T00:01:12.503Z,100494.71
2018-03-26T00:03:40.800Z,100486.83
2018-03-26T00:06:09.083Z,100492.92
2018-03-26T00:08:37.368Z,100492.14
2018-03-26T00:11:05.667Z,100485.18
2018-03-26T00:13:33.949Z,100488.67
2018-03-26T00:16:02.244Z,100487.38
2018-03-26T00:18:30.528Z,100488.64
2018-03-26T00:20:58.812Z,100485.61
2018-03-26T00:23:27.094Z,100482.55
2018-03-26T00:25:55.388Z,100492.11
2018-03-26T00:28:23.671Z,100484.34
2018-03-26T00:30:51.951Z,100485.20
2018-03-26T00:33:20.248Z,100485.20
2018-03-26T00:35:48.520Z,100492.16
2018-03-26T00:38:16.800Z,100489.99
2018-03-26T00:40:45.116Z,100496.97
2018-03-26T00:43:13.448Z,100490.50
2018-03-26T00:45:41.681Z,100498.78
2018-03-26T00:48:09.983Z,100496.22
2018-03-26T00:50:38.263Z,100499.69
2018-03-26T00:53:06.555Z,100502.72
2018-03-26T00:55:34.840Z,100505.35
2018-03-26T00:58:03.116Z,100510.61
2018-03-26T01:00:31.408Z,100505.34
2018-03-26T01:02:59.700Z,100512.30
2018-03-26T01:05:27.981Z,100511.47
2018-03-26T01:07:56.261Z,100506.38
2018-03-26T01:10:24.572Z,100508.42
2018-03-26T01:12:52.868Z,100511.47
2018-03-26T01:15:21.153Z,100514.98
2018-03-26T01:17:49.448Z,100520.62
2018-03-26T01:20:17.732Z,100516.76
2018-03-26T01:22:46.016Z,100518.05
2018-03-26T01:25:14.309Z,100526.79
2018-03-26T01:27:42.592Z,100523.70
2018-03-26T01:30:10.872Z,100535.85
2018-03-26T01:32:39.171Z,100540.16
2018-03-26T01:35:07.451Z,100539.77
2018-03-26T01:37:35.743Z,100543.25
2018-03-26T01:40:04.040Z,100545.39
2018-03-26T01:42:32.318Z,100552.77
2018-03-26T01:45:00.628Z,100549.77
2018-03-26T01:47:28.919Z,100558.42
2018-03-26T01:49:57.196Z,100560.57
2018-03-26T01:52:25.479Z,100566.60
2018-03-26T01:54:53.779Z,100572.70
2018-03-26T01:57:22.067Z,100568.80
2018-03-26T01:59:50.344Z,100573.15
2018-03-26T02:02:18.640Z,100564.52
2018-03-26T02:04:46.947Z,100577.06
2018-03-26T02:07:15.199Z,100576.61
2018-03-26T02:09:43.504Z,100574.48
2018-03-26T02:12:11.780Z,100570.58
2018-03-26T02:14:40.055Z,100571.02
2018-03-26T02:17:08.347Z,100574.45
2018-03-26T02:19:36.627Z,100579.21
2018-03-26T02:22:04.928Z,100586.63
2018-03-26T02:24:33.208Z,100585.72
2018-03-26T02:27:01.491Z,100583.13
2018-03-26T02:29:29.780Z,100589.64
2018-03-26T02:31:58.073Z,100588.75
2018-03-26T02:34:26.371Z,100595.27
2018-03-26T02:36:54.651Z,100589.63
2018-03-26T02:39:22.932Z,100601.29
2018-03-26T02:41:51.228Z,100597.40
2018-03-26T02:44:19.520Z,100596.98
2018-03-26T02:46:47.818Z,100597.86
2018-03-26T02:49:16.098Z,100593.96
2018-03-26T02:51:44.373Z,100604.78
2018-03-26T02:54:12.672Z,100600.44
2018-03-26T02:56:40.962Z,100603.02
2018-03-26T02:59:09.239Z,100609.09
2018-03-26T03:01:37.792Z,100614.28
2018-03-26T03:04:06.072Z,100611.26
2018-03-26T03:06:34.364Z,100623.79
2018-03-26T03:09:02.647Z,100621.62
2018-03-26T03:11:30.957Z,100621.20
2018-03-26T03:13:59.239Z,100626.80
2018-03-26T03:16:27.523Z,100620.75
2018-03-26T03:18:55.826Z,100619.03
2018-03-26T03:21:24.118Z,100620.32
2018-03-26T03:23:52.407Z,100626.38
2018-03-26T03:26:20.692Z,100633.30
2018-03-26T03:28:48.975Z,100629.83
2018-03-26T03:31:17.264Z,100632.86
2018-03-26T03:33:45.543Z,100633.72
2018-03-26T03:36:13.845Z,100639.35
2018-03-26T03:38:42.128Z,100640.66
2018-03-26T03:41:10.410Z,100647.56
2018-03-26T03:43:38.700Z,100644.52
2018-03-26T03:46:06.983Z,100644.11
2018-03-26T03:48:35.284Z,100652.73
2018-03-26T03:51:03.563Z,100642.73
2018-03-26T03:53:31.848Z,100650.16
2018-03-26T03:56:00.144Z,100648.39
2018-03-26T03:58:28.431Z,100650.53
2018-03-26T04:00:56.728Z,100655.72
2018-03-26T04:03:25.010Z,100651.79
2018-03-26T04:05:53.284Z,100651.39
2018-03-26T04:08:21.571Z,100658.73
2018-03-26T04:10:49.852Z,100659.64
2018-03-26T04:13:18.151Z,100658.79
2018-03-26T04:15:46.432Z,100663.11
2018-03-26T04:18:14.700Z,100656.63
2018-03-26T04:20:43.003Z,100669.60
2018-03-26T04:23:11.291Z,100664.42
2018-03-26T04:25:39.591Z,100669.16
2018-03-26T04:28:07.871Z,100667.38
2018-03-26T04:30:36.147Z,100665.72
2018-03-26T04:33:04.442Z,100663.95
2018-03-26T04:35:32.719Z,100668.23
2018-03-26T04:38:01.019Z,100675.64
2018-03-26T04:40:29.295Z,100676.00
2018-03-26T04:42:57.580Z,100677.76
2018-03-26T04:45:25.871Z,100676.43
2018-03-26T04:47:54.144Z,100680.79
2018-03-26T04:50:22.439Z,100676.89
2018-03-26T04:52:50.720Z,100682.94
2018-03-26T04:55:19.012Z,100679.92
2018-03-26T04:57:47.303Z,100683.81
2018-03-26T05:00:15.576Z,100687.23
2018-03-26T05:02:43.875Z,100684.64
2018-03-26T05:05:12.155Z,100689.80
2018-03-26T05:07:40.432Z,100685.06
2018-03-26T05:10:08.720Z,100688.09
2018-03-26T05:12:36.995Z,100691.10
2018-03-26T05:15:05.528Z,100696.28
2018-03-26T05:17:33.803Z,100696.73
2018-03-26T05:20:02.083Z,100701.05
2018-03-26T05:22:30.370Z,100704.52
2018-03-26T05:24:58.648Z,100710.53
2018-03-26T05:27:26.936Z,100713.56
2018-03-26T05:29:55.228Z,100721.18
2018-03-26T05:32:23.495Z,100719.52
2018-03-26T05:34:51.784Z,100719.61
2018-03-26T05:37:20.055Z,100723.92
2018-03-26T05:39:48.377Z,100732.84
2018-03-26T05:42:16.652Z,100738.49
2018-03-26T05:44:44.927Z,100733.35
2018-03-26T05:47:13.216Z,100745.48
2018-03-26T05:49:41.488Z,100757.02
2018-03-26T05:52:09.815Z,100760.36
2018-03-26T05:54:38.102Z,100762.97
2018-03-26T05:57:06.379Z,100763.24
2018-03-26T05:59:34.670Z,100765.13
2018-03-26T06:02:02.942Z,100766.91
2018-03-26T06:04:31.231Z,100770.83
2018-03-26T06:06:59.555Z,100773.42
2018-03-26T06:09:27.783Z,100779.35
2018-03-26T06:11:56.095Z,100780.62
2018-03-26T06:14:24.354Z,100785.91
2018-03-26T06:17:04.556Z,100782.42
2018-03-26T06:19:32.832Z,100783.13
2018-03-26T06:22:01.112Z,100786.70
2018-03-26T06:24:29.391Z,100788.52
2018-03-26T06:26:57.672Z,100799.45
2018-03-26T06:29:25.983Z,100796.59
2018-03-26T06:31:54.247Z,100803.84
2018-03-26T06:34:22.523Z,100796.96
2018-03-26T06:36:51.675Z,100802.41
2018-03-26T06:39:24.335Z,100802.67
2018-03-26T06:41:52.623Z,100802.53
2018-03-26T06:44:20.896Z,100808.69
2018-03-26T06:46:49.507Z,100807.18
2018-03-26T06:49:17.785Z,100816.09
2018-03-26T06:51:46.064Z,100816.52
2018-03-26T06:54:14.360Z,100818.34
2018-03-26T06:56:42.660Z,100816.63
2018-03-26T06:59:10.958Z,100813.16
2018-03-26T07:01:39.217Z,100824.05
2018-03-26T07:04:07.496Z,100829.27
2018-03-26T07:06:35.776Z,100829.52
2018-03-26T07:09:04.054Z,100829.14
2018-03-26T07:11:32.352Z,100834.75
2018-03-26T07:14:00.645Z,100835.06
2018-03-26T07:16:28.901Z,100832.70
2018-03-26T07:18:57.233Z,100837.13
2018-03-26T07:21:25.461Z,100830.84
2018-03-26T07:23:53.765Z,100840.28
2018-03-26T07:26:22.040Z,100842.80
2018-03-26T07:28:50.317Z,100841.67
2018-03-26T07:31:18.642Z,100843.61
2018-03-26T07:33:46.888Z,100840.76
2018-03-26T07:36:15.184Z,100840.40
2018-03-26T07:38:43.464Z,100844.50
2018-03-26T07:41:11.777Z,100849.34
2018-03-26T07:43:40.049Z,100850.61
2018-03-26T07:46:08.408Z,100852.88
2018-03-26T07:48:36.707Z,100848.02
2018-03-26T07:51:04.999Z,100845.20
2018-03-26T07:53:33.280Z,100851.10
2018-03-26T07:56:01.572Z,100850.30
2018-03-26T07:58:29.862Z,100852.22
2018-03-26T08:00:58.164Z,100848.73
2018-03-26T08:03:26.452Z,100852.23
2018-03-26T08:05:54.744Z,100852.22
2018-03-26T08:08:23.032Z,100855.62
2018-03-26T08:10:51.310Z,100857.86
2018-03-26T08:13:19.615Z,100860.01
2018-03-26T08:15:47.899Z,100860.87
2018-03-26T08:18:16.185Z,100863.06
2018-03-26T08:20:44.474Z,100872.16
2018-03-26T08:23:12.763Z,100871.30
2018-03-26T08:25:41.074Z,100873.00
2018-03-26T08:28:09.352Z,100876.42
2018-03-26T08:30:37.631Z,100878.56
2018-03-26T08:33:05.932Z,100880.36
2018-03-26T08:35:34.216Z,100885.97
2018-03-26T08:38:02.512Z,100892.45
2018-03-26T08:40:30.831Z,100891.20
2018-03-26T08:42:59.139Z,100889.47
2018-03-26T08:45:27.469Z,100889.27
2018-03-26T08:47:55.751Z,100888.49
2018-03-26T08:50:24.092Z,100891.36
2018-03-26T08:52:52.325Z,100890.32
2018-03-26T08:55:20.607Z,100891.83
2018-03-26T08:57:48.908Z,100894.92
2018-03-26T09:00:17.192Z,100890.77
2018-03-26T09:02:45.504Z,100896.27
2018-03-26T09:05:13.791Z,100899.98
2018-03-26T09:07:42.075Z,100899.80
2018-03-26T09:10:10.363Z,100889.24
2018-03-26T09:12:38.643Z,100890.36
2018-03-26T09:15:06.943Z,100892.69
2018-03-26T09:17:35.376Z,100890.83
2018-03-26T09:20:03.608Z,100895.05
2018-03-26T09:22:31.908Z,100900.52
2018-03-26T09:25:00.199Z,100898.23
2018-03-26T09:27:28.476Z,100898.41
2018-03-26T09:29:56.765Z,100897.23
2018-03-26T09:32:25.073Z,100907.74
2018-03-26T09:34:53.379Z,100907.34
2018-03-26T09:37:21.672Z,100904.52
2018-03-26T09:39:49.956Z,100910.52
2018-03-26T09:42:18.248Z,100904.95
2018-03-26T09:44:46.568Z,100917.53
2018-03-26T09:47:14.851Z,100908.91
2018-03-26T09:49:43.151Z,100907.91
2018-03-26T09:52:11.439Z,100906.60
2018-03-26T09:54:39.731Z,100901.89
2018-03-26T09:57:08.083Z,100897.45
2018-03-26T09:59:36.436Z,100918.44
2018-03-26T10:02:04.734Z,100916.11
2018-03-26T10:04:33.034Z,100911.45
2018-03-26T10:07:01.319Z,100914.55
2018-03-26T10:09:29.618Z,100919.56
2018-03-26T10:11:57.947Z,100919.80
2018-03-26T10:14:26.376Z,100918.00
2018-03-26T10:16:54.989Z,100912.42
2018-03-26T10:19:23.292Z,100905.94
2018-03-26T10:21:51.576Z,100909.11
2018-03-26T10:24:19.872Z,100903.38
2018-03-26T10:26:48.151Z,100899.34
2018-03-26T10:29:17.267Z,100898.11
2018-03-26T10:31:45.582Z,100906.16
2018-03-26T10:34:13.861Z,100903.49
2018-03-26T10:36:42.242Z,100913.28
2018-03-26T10:39:10.530Z,100902.41
2018-03-26T10:41:39.496Z,100913.16
2018-03-26T10:44:07.800Z,100920.90
2018-03-26T10:46:36.072Z,100915.67
2018-03-26T10:49:04.368Z,100912.59
2018-03-26T10:51:32.666Z,100917.61
2018-03-26T10:54:00.940Z,100912.92
2018-03-26T10:56:29.239Z,100908.70
2018-03-26T10:58:57.507Z,100908.94
2018-03-26T11:01:25.796Z,100921.28
2018-03-26T11:03:54.113Z,100913.19
2018-03-26T11:06:22.395Z,100917.17
2018-03-26T11:08:50.694Z,100909.02
2018-03-26T11:11:18.975Z,100921.33
2018-03-26T11:13:47.252Z,100927.56
2018-03-26T11:16:15.544Z,100911.98
2018-03-26T11:18:43.834Z,100908.54
2018-03-26T11:21:12.463Z,100911.19
2018-03-26T11:23:40.740Z,100912.06
2018-03-26T11:26:09.023Z,100907.56
2018-03-26T11:28:37.315Z,100914.45
2018-03-26T11:31:05.596Z,100917.31
2018-03-26T11:33:33.906Z,100911.20
2018-03-26T11:36:02.204Z,100909.34
2018-03-26T11:38:30.482Z,100910.01
2018-03-26T11:40:58.775Z,100911.16
2018-03-26T11:43:27.067Z,100909.27
2018-03-26T11:45:55.366Z,100901.58
2018-03-26T11:51:20.795Z,100917.59
2018-03-26T11:53:49.087Z,100910.08
2018-03-26T11:56:17.371Z,100909.68
2018-03-26T11:58:45.659Z,100902.72
2018-03-26T12:01:13.944Z,100907.20
2018-03-26T12:03:42.239Z,100907.83
2018-03-26T12:06:10.521Z,100906.53
2018-03-26T12:08:38.815Z,100901.48
2018-03-26T12:11:07.085Z,100897.95
2018-03-26T12:13:35.376Z,100897.02
2018-03-26T12:16:03.643Z,100894.27
2018-03-26T12:18:31.943Z,100899.11
2018-03-26T12:21:02.197Z,100894.66
2018-03-26T12:23:42.296Z,100895.67
2018-03-26T12:26:10.576Z,100896.83
2018-03-26T12:28:50.643Z,100900.19
2018-03-26T12:31:18.934Z,100894.08
2018-03-26T12:33:58.980Z,100890.48
2018-03-26T12:36:27.248Z,100895.58
2018-03-26T12:38:55.577Z,100897.84
2018-03-26T12:41:23.831Z,100898.88
2018-03-26T12:43:52.119Z,100896.06
2018-03-26T12:46:32.256Z,100895.09
2018-03-26T12:49:00.551Z,100902.25
2018-03-26T12:51:40.742Z,100896.94
2018-03-26T12:54:09.015Z,100895.22
2018-03-26T12:56:38.231Z,100891.98
2018-03-26T12:59:06.507Z,100894.39
2018-03-26T13:01:46.699Z,100888.53
2018-03-26T13:04:14.992Z,100893.97
2018-03-26T13:06:43.263Z,100900.75
2018-03-26T13:09:11.861Z,100899.00
2018-03-26T13:11:40.127Z,100900.23
2018-03-26T13:14:08.408Z,100898.56
2018-03-26T13:16:36.743Z,100904.67
2018-03-26T13:19:05.039Z,100906.39
2018-03-26T13:21:33.331Z,100903.28
2018-03-26T13:24:01.612Z,100911.33
2018-03-26T13:26:29.904Z,100906.27
2018-03-26T13:28:58.183Z,100907.95
2018-03-26T13:31:26.499Z,100906.75
2018-03-26T13:33:54.776Z,100910.28
2018-03-26T13:36:23.048Z,100907.69
2018-03-26T13:38:51.329Z,100914.55
2018-03-26T13:41:19.599Z,100913.83
2018-03-26T13:43:47.884Z,100923.08
2018-03-26T13:46:16.156Z,100919.56
2018-03-26T13:48:44.456Z,100915.64
2018-03-26T13:51:12.731Z,100921.37
2018-03-26T13:53:41.026Z,100915.66
2018-03-26T13:56:09.297Z,100920.06
2018-03-26T13:58:37.632Z,100921.83
2018-03-26T14:01:05.865Z,100915.31
2018-03-26T14:03:34.235Z,100922.20
2018-03-26T14:06:02.531Z,100919.98
2018-03-26T14:12:01.213Z,100924.34
2018-03-26T14:14:41.416Z,100918.19
2018-03-26T14:17:21.463Z,100922.97
2018-03-26T14:19:49.751Z,100919.44
2018-03-26T14:22:18.027Z,100923.04
2018-03-26T14:24:46.292Z,100924.16
2018-03-26T14:27:14.571Z,100923.25
2018-03-26T14:29:42.843Z,100923.34
2018-03-26T14:32:11.128Z,100916.67
2018-03-26T14:34:39.403Z,100921.95
2018-03-26T14:37:07.684Z,100925.05
2018-03-26T14:39:35.960Z,100926.20
2018-03-26T14:42:04.235Z,100925.27
2018-03-26T14:44:32.519Z,100923.60
2018-03-26T14:47:00.788Z,100929.36
2018-03-26T14:49:29.071Z,100924.55
2018-03-26T14:51:57.347Z,100922.38
2018-03-26T14:54:25.609Z,100922.00
2018-03-26T14:56:53.888Z,100921.98
2018-03-26T14:59:22.164Z,100926.67
2018-03-26T15:01:50.447Z,100923.90
2018-03-26T15:04:18.740Z,100919.05
2018-03-26T15:06:47.024Z,100911.52
2018-03-26T15:09:15.447Z,100915.39
2018-03-26T15:11:43.716Z,100912.70
2018-03-26T15:14:11.999Z,100921.09
2018-03-26T15:16:46.098Z,100924.67
2018-03-26T15:19:14.375Z,100910.17
2018-03-26T15:21:42.651Z,100930.08
2018-03-26T15:24:10.970Z,100924.84
2018-03-26T15:26:39.248Z,100926.48
2018-03-26T15:29:07.511Z,100925.88
2018-03-26T15:31:35.795Z,100929.89
2018-03-26T15:34:04.065Z,100927.13
2018-03-26T15:36:32.335Z,100924.49
2018-03-26T15:39:00.968Z,100925.59
2018-03-26T15:41:29.256Z,100930.20
2018-03-26T15:43:57.529Z,100930.14
2018-03-26T15:46:25.793Z,100922.70
2018-03-26T15:48:54.072Z,100935.11
2018-03-26T15:51:22.341Z,100938.99
2018-03-26T15:53:50.628Z,100937.69
2018-03-26T15:56:18.896Z,100936.49
2018-03-26T15:58:47.191Z,100945.43
2018-03-26T16:01:15.463Z,100944.73
2018-03-26T16:03:43.735Z,100938.08
2018-03-26T16:06:12.015Z,100941.09
2018-03-26T16:08:40.292Z,100941.11
2018-03-26T16:11:08.575Z,100937.29
2018-03-26T16:13:36.848Z,100945.15
2018-03-26T16:16:05.120Z,100942.06
2018-03-26T16:18:33.452Z,100946.01
2018-03-26T16:21:01.666Z,100946.41
2018-03-26T16:23:29.948Z,100942.66
2018-03-26T16:25:58.223Z,100948.77
2018-03-26T16:28:26.503Z,100948.72
2018-03-26T16:30:54.768Z,100944.33
2018-03-26T16:33:23.035Z,100951.22
2018-03-26T16:35:51.320Z,100949.83
2018-03-26T16:38:19.597Z,100954.25
2018-03-26T16:40:47.888Z,100946.41
2018-03-26T16:43:16.159Z,100950.90
2018-03-26T16:45:44.439Z,100958.24
2018-03-26T16:48:12.723Z,100952.20
2018-03-26T16:50:41.012Z,100952.53
2018-03-26T16:53:09.279Z,100959.47
2018-03-26T16:55:37.553Z,100956.02
2018-03-26T16:58:05.831Z,100961.28
2018-03-26T17:00:34.131Z,100954.41
2018-03-26T17:03:02.412Z,100953.94
2018-03-26T17:05:30.680Z,100959.59
2018-03-26T17:07:58.960Z,100957.03
2018-03-26T17:10:27.231Z,100960.92
2018-03-26T17:12:55.513Z,100955.31
2018-03-26T17:15:23.780Z,100961.37
2018-03-26T17:17:52.059Z,100967.45
2018-03-26T17:20:20.346Z,100962.25
2018-03-26T17:22:48.616Z,100957.03
2018-03-26T17:25:16.892Z,100961.80
2018-03-26T17:27:45.160Z,100960.53
2018-03-26T17:30:13.452Z,100960.94
2018-03-26T17:32:41.719Z,100963.53
2018-03-26T17:35:10.016Z,100965.70
2018-03-26T17:37:38.288Z,100964.84
2018-03-26T17:40:06.560Z,100956.59
2018-03-26T17:42:34.844Z,100960.97
2018-03-26T17:45:03.121Z,100967.48
2018-03-26T17:47:31.511Z,100967.04
2018-03-26T17:49:59.771Z,100967.45
2018-03-26T17:52:28.068Z,100965.77
2018-03-26T17:54:56.320Z,100965.74
2018-03-26T17:57:24.611Z,100972.23
2018-03-26T17:59:52.884Z,100964.87
2018-03-26T18:02:21.152Z,100965.73
2018-03-26T18:04:49.427Z,100964.86
2018-03-26T18:07:17.699Z,100968.33
2018-03-26T18:09:45.987Z,100970.49
2018-03-26T18:12:14.267Z,100977.00
2018-03-26T18:14:42.554Z,100977.88
2018-03-26T18:17:10.831Z,100977.46
2018-03-26T18:19:39.133Z,100979.64
2018-03-26T18:22:07.410Z,100981.80
2018-03-26T18:24:35.676Z,100983.11
2018-03-26T18:27:03.955Z,100980.94
2018-03-26T18:29:32.229Z,100987.02
2018-03-26T18:32:00.516Z,100982.66
2018-03-26T18:34:28.788Z,100981.38
2018-03-26T18:36:57.067Z,100978.77
2018-03-26T18:39:25.337Z,100986.11
2018-03-26T18:41:53.620Z,100977.03
2018-03-26T18:44:21.895Z,100977.02
2018-03-26T18:46:50.159Z,100983.91
2018-03-26T18:49:18.446Z,100983.48
2018-03-26T18:51:46.704Z,100982.19
2018-03-26T18:54:14.990Z,100983.00
2018-03-26T18:56:43.260Z,100987.73
2018-03-26T18:59:11.531Z,100986.44
2018-03-26T19:01:39.804Z,100987.31
2018-03-26T19:04:08.115Z,100987.27
2018-03-26T19:06:36.395Z,100993.32
2018-03-26T19:09:04.667Z,100986.44
2018-03-26T19:11:32.948Z,100995.09
2018-03-26T19:14:01.231Z,100991.16
2018-03-26T19:16:29.509Z,100991.58
2018-03-26T19:18:57.776Z,100992.87
2018-03-26T19:21:26.081Z,100992.45
2018-03-26T19:23:54.352Z,100993.77
2018-03-26T19:26:22.624Z,100995.45
2018-03-26T19:28:50.908Z,101002.42
2018-03-26T19:31:19.175Z,101002.86
2018-03-26T19:33:47.472Z,101000.60
2018-03-26T19:36:15.733Z,101000.18
2018-03-26T19:38:44.029Z,101003.61
2018-03-26T19:41:12.304Z,100995.41
2018-03-26T19:43:40.579Z,101001.86
2018-03-26T19:46:08.873Z,101003.59
2018-03-26T19:48:37.144Z,101004.05
2018-03-26T19:51:05.426Z,101008.38
2018-03-26T19:53:33.722Z,101012.66
2018-03-26T19:56:02.002Z,101005.31
2018-03-26T19:58:30.275Z,101004.50
2018-03-26T20:00:58.907Z,101008.41
2018-03-26T20:03:27.194Z,101007.98
2018-03-26T20:05:55.460Z,101010.00
2018-03-26T20:08:23.743Z,101013.45
2018-03-26T20:10:52.035Z,101012.05
2018-03-26T20:13:20.319Z,101012.14
2018-03-26T20:15:48.587Z,101012.05
2018-03-26T20:18:16.876Z,101022.06
2018-03-26T20:20:45.146Z,101017.34
2018-03-26T20:23:13.443Z,101025.52
2018-03-26T20:25:41.712Z,101033.31
2018-03-26T20:28:10.009Z,101039.62
2018-03-26T20:30:38.287Z,101030.19
2018-03-26T20:33:06.564Z,101030.66
2018-03-26T20:35:34.856Z,101031.40
2018-03-26T20:38:03.139Z,101024.94
2018-03-26T20:40:31.424Z,101024.09
2018-03-26T20:42:59.703Z,101026.91
2018-03-26T20:45:27.997Z,101033.41
2018-03-26T20:47:56.268Z,101029.78
2018-03-26T20:50:24.551Z,101028.05
2018-03-26T20:52:52.828Z,101026.09
2018-03-26T20:55:21.088Z,101023.77
2018-03-26T20:57:49.376Z,101018.71
2018-03-26T21:00:17.656Z,101017.35
2018-03-26T21:02:45.938Z,101022.19
2018-03-26T21:05:14.223Z,101020.03
2018-03-26T21:07:42.507Z,101019.64
2018-03-26T21:10:10.780Z,101019.03
2018-03-26T21:12:39.051Z,101019.28
2018-03-26T21:15:07.328Z,101009.74
2018-03-26T21:17:35.596Z,101017.30
2018-03-26T21:20:03.874Z,101015.45
2018-03-26T21:22:32.143Z,101014.29
2018-03-26T21:25:00.431Z,101022.20
2018-03-26T21:27:28.704Z,101021.02
2018-03-26T21:29:56.984Z,101025.77
2018-03-26T21:32:25.264Z,101031.80
2018-03-26T21:34:53.539Z,101036.19
2018-03-26T21:37:21.835Z,101046.61
2018-03-26T21:39:50.119Z,101043.48
2018-03-26T21:42:18.403Z,101048.08
2018-03-26T21:44:46.695Z,101051.19
2018-03-26T21:47:14.968Z,101051.14
2018-03-26T21:49:44.179Z,101051.91
2018-03-26T21:52:12.983Z,101053.14
2018-03-26T21:54:45.348Z,101044.83
2018-03-26T21:57:13.636Z,101044.50
2018-03-26T21:59:41.900Z,101041.91
2018-03-26T22:02:10.167Z,101041.78
2018-03-26T22:04:38.436Z,101029.19
2018-03-26T22:07:06.696Z,101032.38
2018-03-26T22:09:34.971Z,101030.73
2018-03-26T22:12:03.247Z,101034.09
2018-03-26T22:14:31.516Z,101033.37
2018-03-26T22:16:59.790Z,101025.52
2018-03-26T22:19:28.067Z,101020.39
2018-03-26T22:21:56.340Z,101022.38
2018-03-26T22:24:24.607Z,101024.17
2018-03-26T22:26:52.897Z,101019.11
2018-03-26T22:29:21.167Z,101018.21
2018-03-26T22:31:49.443Z,101021.69
2018-03-26T22:34:17.715Z,101028.59
2018-03-26T22:36:45.987Z,101023.40
2018-03-26T22:39:14.254Z,101019.45
2018-03-26T22:41:42.549Z,101024.55
2018-03-26T22:44:10.827Z,101022.47
2018-03-26T22:46:39.100Z,101019.89
2018-03-26T22:49:07.375Z,101034.98
2018-03-26T22:51:35.640Z,101025.89
2018-03-26T22:54:03.916Z,101030.16
2018-03-26T22:56:32.192Z,101022.19
2018-03-26T22:59:00.471Z,101023.19
2018-03-26T23:01:28.739Z,101021.79
2018-03-26T23:03:57.027Z,101023.77
2018-03-26T23:06:25.293Z,101017.77
2018-03-26T23:08:53.559Z,101027.08
2018-03-26T23:11:21.836Z,101024.24
2018-03-26T23:13:50.115Z,101023.67
2018-03-26T23:16:18.402Z,101020.19
2018-03-26T23:18:46.659Z,101031.41
2018-03-26T23:21:14.935Z,101029.30
2018-03-26T23:23:49.157Z,101031.78
2018-03-26T23:26:17.438Z,101030.48
2018-03-26T23:28:45.701Z,101033.31
2018-03-26T23:31:14.012Z,101027.80
2018-03-26T23:33:42.276Z,101016.95
2018-03-26T23:36:10.562Z,101020.89
2018-03-26T23:38:38.828Z,101018.14
2018-03-26T23:41:07.095Z,101021.27
2018-03-26T23:43:35.374Z,101026.33
2018-03-26T23:46:03.648Z,101022.11
2018-03-26T23:48:31.933Z,101021.31
2018-03-26T23:51:00.200Z,101020.89
2018-03-26T23:53:28.504Z,101026.59
2018-03-26T23:55:56.772Z,101025.35
2018-03-26T23:58:25.039Z,101027.09
